createdAt,value
2022-10-14T00:00:31.419Z,46.10
2022-10-14T00:02:34.132Z,46.30
2022-10-14T00:04:36.169Z,46.40
2022-10-14T00:06:37.927Z,46.30
2022-10-14T00:08:40.335Z,46.30
2022-10-14T00:10:50.159Z,46.50
2022-10-14T00:12:52.227Z,46.80
2022-10-14T00:14:56.269Z,46.80
2022-10-14T00:17:00.314Z,46.80
2022-10-14T00:19:03.149Z,46.80
2022-10-14T00:21:04.922Z,46.90
2022-10-14T00:23:10.290Z,46.90
2022-10-14T00:25:14.166Z,47.20
2022-10-14T00:27:15.841Z,47.30
2022-10-14T00:29:21.024Z,47.20
2022-10-14T00:31:22.980Z,47.30
2022-10-14T00:33:27.921Z,47.30
2022-10-14T00:35:32.493Z,47.30
2022-10-14T00:37:34.219Z,47.40
2022-10-14T00:39:37.489Z,47.50
2022-10-14T00:41:39.715Z,47.50
2022-10-14T00:44:02.934Z,47.60
2022-10-14T00:46:04.630Z,47.70
2022-10-14T00:48:07.159Z,47.60
2022-10-14T00:50:09.880Z,47.70
2022-10-14T00:52:19.303Z,47.90
2022-10-14T00:54:27.146Z,47.80
2022-10-14T00:56:30.878Z,48.00
2022-10-14T00:58:32.539Z,48.60
2022-10-14T01:00:34.755Z,48.20
2022-10-14T01:02:36.547Z,48.20
2022-10-14T01:04:41.828Z,48.40
2022-10-14T01:06:53.218Z,48.50
2022-10-14T01:09:28.131Z,48.40
2022-10-14T01:11:37.758Z,48.70
2022-10-14T01:14:02.192Z,48.30
2022-10-14T01:16:09.301Z,48.40
2022-10-14T01:18:26.530Z,48.20
2022-10-14T01:20:39.712Z,48.60
2022-10-14T01:23:05.502Z,48.70
2022-10-14T01:25:17.353Z,48.60
2022-10-14T01:27:40.022Z,48.60
2022-10-14T01:30:04.376Z,48.60
2022-10-14T01:32:13.010Z,48.60
2022-10-14T01:34:21.303Z,48.40
2022-10-14T01:36:34.346Z,48.40
2022-10-14T01:38:41.309Z,48.50
2022-10-14T01:40:59.198Z,48.50
2022-10-14T01:43:02.138Z,48.60
2022-10-14T01:45:20.474Z,48.60
2022-10-14T01:47:32.828Z,48.70
2022-10-14T01:49:49.662Z,48.50
2022-10-14T01:51:55.573Z,48.70
2022-10-14T01:54:13.094Z,48.60
2022-10-14T01:56:17.163Z,48.90
2022-10-14T01:58:23.254Z,48.90
2022-10-14T02:00:24.998Z,48.90
2022-10-14T02:02:26.701Z,48.80
2022-10-14T02:04:28.335Z,48.70
2022-10-14T02:06:37.364Z,48.70
2022-10-14T02:09:30.328Z,48.80
2022-10-14T02:11:44.153Z,48.80
2022-10-14T02:14:22.723Z,48.60
2022-10-14T02:16:47.352Z,48.80
2022-10-14T02:19:19.311Z,48.50
2022-10-14T02:21:37.278Z,48.50
2022-10-14T02:23:46.617Z,48.30
2022-10-14T02:25:49.977Z,48.30
2022-10-14T02:27:53.740Z,48.40
2022-10-14T02:30:01.188Z,48.50
2022-10-14T02:32:07.781Z,48.50
2022-10-14T02:34:12.405Z,48.60
2022-10-14T02:36:17.851Z,48.60
2022-10-14T02:38:23.074Z,48.80
2022-10-14T02:40:35.861Z,48.70
2022-10-14T02:42:37.497Z,48.80
2022-10-14T02:44:53.171Z,48.90
2022-10-14T02:46:56.294Z,49.10
2022-10-14T02:48:58.030Z,49.00
2022-10-14T02:51:02.245Z,49.00
2022-10-14T02:53:04.345Z,49.80
2022-10-14T02:55:06.423Z,49.20
2022-10-14T02:57:08.073Z,49.30
2022-10-14T02:59:09.886Z,49.40
2022-10-14T03:01:12.750Z,49.40
2022-10-14T03:03:16.438Z,49.30
2022-10-14T03:05:18.173Z,49.40
2022-10-14T03:07:22.130Z,49.50
2022-10-14T03:09:26.338Z,49.50
2022-10-14T03:11:29.313Z,49.60
2022-10-14T03:13:37.056Z,49.60
2022-10-14T03:15:39.565Z,49.60
2022-10-14T03:17:41.907Z,49.60
2022-10-14T03:19:43.588Z,49.70
2022-10-14T03:21:49.115Z,49.70
2022-10-14T03:23:55.540Z,49.70
2022-10-14T03:26:07.144Z,49.60
2022-10-14T03:28:15.092Z,49.60
2022-10-14T03:30:35.097Z,49.60
2022-10-14T03:32:44.789Z,49.60
2022-10-14T03:35:16.863Z,49.70
2022-10-14T03:37:22.861Z,49.80
2022-10-14T03:39:26.189Z,50.00
2022-10-14T03:41:28.562Z,49.90
2022-10-14T03:43:30.700Z,50.00
2022-10-14T03:45:33.596Z,50.10
2022-10-14T03:47:36.904Z,49.90
2022-10-14T03:49:41.116Z,49.90
2022-10-14T03:51:52.969Z,49.90
2022-10-14T03:54:00.338Z,49.80
2022-10-14T03:56:07.131Z,50.00
2022-10-14T03:58:12.921Z,49.90
2022-10-14T04:00:22.355Z,50.00
2022-10-14T04:02:35.777Z,50.10
2022-10-14T04:04:37.958Z,50.00
2022-10-14T04:06:39.913Z,49.90
2022-10-14T04:08:43.400Z,50.00
2022-10-14T04:11:00.741Z,49.90
2022-10-14T04:13:09.108Z,49.80
2022-10-14T04:15:12.698Z,49.80
2022-10-14T04:17:33.799Z,49.80
2022-10-14T04:19:43.685Z,49.80
2022-10-14T04:21:49.591Z,49.90
2022-10-14T04:23:56.504Z,49.80
2022-10-14T04:26:10.831Z,49.70
2022-10-14T04:28:13.499Z,49.70
2022-10-14T04:30:23.681Z,49.70
2022-10-14T04:32:29.401Z,49.80
2022-10-14T04:34:33.718Z,49.60
2022-10-14T04:36:35.478Z,49.60
2022-10-14T04:38:38.909Z,49.60
2022-10-14T04:40:46.508Z,50.20
2022-10-14T04:42:48.334Z,49.50
2022-10-14T04:44:58.682Z,49.50
2022-10-14T04:47:12.014Z,49.50
2022-10-14T04:49:16.375Z,49.30
2022-10-14T04:51:25.666Z,49.50
2022-10-14T04:53:53.548Z,49.50
2022-10-14T04:56:06.454Z,49.40
2022-10-14T04:58:14.493Z,49.60
2022-10-14T05:00:18.341Z,49.90
2022-10-14T05:02:35.125Z,49.70
2022-10-14T05:04:39.533Z,49.50
2022-10-14T05:06:43.043Z,49.70
2022-10-14T05:08:47.654Z,49.50
2022-10-14T05:10:51.686Z,49.50
2022-10-14T05:13:08.649Z,49.40
2022-10-14T05:15:19.753Z,49.50
2022-10-14T05:17:45.557Z,49.40
2022-10-14T05:19:50.733Z,49.40
2022-10-14T05:21:53.981Z,49.30
2022-10-14T05:24:01.840Z,49.50
2022-10-14T05:26:07.306Z,49.50
2022-10-14T05:28:09.790Z,49.40
2022-10-14T05:30:19.341Z,49.40
2022-10-14T05:32:25.423Z,50.10
2022-10-14T05:34:35.381Z,49.50
2022-10-14T05:36:39.331Z,49.40
2022-10-14T05:38:41.356Z,49.50
2022-10-14T05:40:43.592Z,49.40
2022-10-14T05:42:45.761Z,49.50
2022-10-14T05:44:47.901Z,49.40
2022-10-14T05:46:49.593Z,49.40
2022-10-14T05:48:51.402Z,49.60
2022-10-14T05:50:53.219Z,49.60
2022-10-14T05:52:57.075Z,49.50
2022-10-14T05:55:05.877Z,49.50
2022-10-14T05:57:07.896Z,49.50
2022-10-14T05:59:12.069Z,49.40
2022-10-14T06:01:15.986Z,49.50
2022-10-14T06:03:17.964Z,49.60
2022-10-14T06:05:22.258Z,49.30
2022-10-14T06:07:24.360Z,49.20
2022-10-14T06:09:26.190Z,49.10
2022-10-14T06:11:30.555Z,49.00
2022-10-14T06:13:32.395Z,49.00
2022-10-14T06:15:36.167Z,49.10
2022-10-14T06:17:41.053Z,49.20
2022-10-14T06:19:44.020Z,49.40
2022-10-14T06:21:45.734Z,49.10
2022-10-14T06:23:47.356Z,49.10
2022-10-14T06:25:51.167Z,49.20
2022-10-14T06:27:57.493Z,49.20
2022-10-14T06:29:59.194Z,49.10
2022-10-14T06:32:03.101Z,48.90
2022-10-14T06:34:05.999Z,48.70
2022-10-14T06:36:08.093Z,48.50
2022-10-14T06:38:10.176Z,48.30
2022-10-14T06:40:11.919Z,48.20
2022-10-14T06:42:13.617Z,48.20
2022-10-14T06:44:16.099Z,48.10
2022-10-14T06:46:17.773Z,48.00
2022-10-14T06:48:19.398Z,48.00
2022-10-14T06:50:21.131Z,48.20
2022-10-14T06:52:22.931Z,48.10
2022-10-14T06:54:24.833Z,48.00
2022-10-14T06:56:28.657Z,47.90
2022-10-14T06:58:31.029Z,48.40
2022-10-14T07:00:32.650Z,47.70
2022-10-14T07:02:34.613Z,47.70
2022-10-14T07:04:36.247Z,47.80
2022-10-14T07:06:38.170Z,47.70
2022-10-14T07:08:40.249Z,47.80
2022-10-14T07:10:42.243Z,47.90
2022-10-14T07:12:44.001Z,47.90
2022-10-14T07:14:45.662Z,47.90
2022-10-14T07:16:49.693Z,47.80
2022-10-14T07:18:51.341Z,48.10
2022-10-14T07:20:55.259Z,48.00
2022-10-14T07:22:57.029Z,48.00
2022-10-14T07:24:58.786Z,48.10
2022-10-14T07:27:04.577Z,48.30
2022-10-14T07:29:06.348Z,48.40
2022-10-14T07:31:14.058Z,48.40
2022-10-14T07:33:15.674Z,48.40
2022-10-14T07:35:21.400Z,48.50
2022-10-14T07:37:23.496Z,48.50
2022-10-14T07:39:25.824Z,48.40
2022-10-14T07:41:29.915Z,48.60
2022-10-14T07:43:33.226Z,48.80
2022-10-14T07:45:36.369Z,48.80
2022-10-14T07:47:38.018Z,48.80
2022-10-14T07:49:39.808Z,48.80
2022-10-14T07:51:42.843Z,49.00
2022-10-14T07:53:45.704Z,49.20
2022-10-14T07:55:52.554Z,49.20
2022-10-14T07:57:54.173Z,49.40
2022-10-14T07:59:58.073Z,49.50
2022-10-14T08:02:00.009Z,49.50
2022-10-14T08:04:02.270Z,49.60
2022-10-14T08:06:07.743Z,49.70
2022-10-14T08:08:09.793Z,49.50
2022-10-14T08:10:13.899Z,49.40
2022-10-14T08:12:17.501Z,49.90
2022-10-14T08:14:19.213Z,49.40
2022-10-14T08:16:29.998Z,49.40
2022-10-14T08:18:31.745Z,49.40
2022-10-14T08:20:34.066Z,49.20
2022-10-14T08:22:38.231Z,49.20
2022-10-14T08:24:42.553Z,49.40
2022-10-14T08:27:00.598Z,49.50
2022-10-14T08:29:08.221Z,49.50
2022-10-14T08:31:09.829Z,49.40
2022-10-14T08:33:13.062Z,49.20
2022-10-14T08:35:15.048Z,49.20
2022-10-14T08:37:18.898Z,49.20
2022-10-14T08:39:21.479Z,49.40
2022-10-14T08:41:46.959Z,49.30
2022-10-14T08:44:12.246Z,49.40
2022-10-14T08:46:39.452Z,49.50
2022-10-14T08:48:42.830Z,49.70
2022-10-14T08:51:05.087Z,49.50
2022-10-14T08:53:20.095Z,49.70
2022-10-14T08:55:35.390Z,49.60
2022-10-14T08:57:49.143Z,49.90
2022-10-14T08:59:51.175Z,49.90
2022-10-14T09:02:00.334Z,49.80
2022-10-14T09:04:07.435Z,50.20
2022-10-14T09:06:20.000Z,50.10
2022-10-14T09:08:30.608Z,50.20
2022-10-14T09:10:36.845Z,50.30
2022-10-14T09:12:40.060Z,50.50
2022-10-14T09:14:47.241Z,50.60
2022-10-14T09:16:54.466Z,50.80
2022-10-14T09:19:01.553Z,50.80
2022-10-14T09:21:27.844Z,51.10
2022-10-14T09:23:40.285Z,51.20
2022-10-14T09:26:04.156Z,51.10
2022-10-14T09:28:05.880Z,51.00
2022-10-14T09:30:15.263Z,50.90
2022-10-14T09:32:39.852Z,50.90
2022-10-14T09:34:47.464Z,51.00
2022-10-14T09:38:56.110Z,50.90
2022-10-14T09:41:00.109Z,50.90
2022-10-14T09:43:13.300Z,51.10
2022-10-14T09:45:18.254Z,51.00
2022-10-14T09:47:20.297Z,50.70
2022-10-14T09:49:34.866Z,50.80
2022-10-14T09:51:42.378Z,51.30
2022-10-14T09:53:47.662Z,51.20
2022-10-14T09:55:55.795Z,51.20
2022-10-14T09:58:05.042Z,51.30
2022-10-14T10:00:07.457Z,51.30
2022-10-14T10:02:36.644Z,52.00
2022-10-14T10:04:46.944Z,51.50
2022-10-14T10:06:54.286Z,51.40
2022-10-14T10:08:58.232Z,51.40
2022-10-14T10:11:14.636Z,51.50
2022-10-14T10:13:33.096Z,51.50
2022-10-14T10:15:37.925Z,51.60
2022-10-14T10:17:40.682Z,51.60
2022-10-14T10:19:47.802Z,51.60
2022-10-14T10:21:51.268Z,51.60
2022-10-14T10:23:58.928Z,51.80
2022-10-14T10:26:25.686Z,51.80
2022-10-14T10:28:32.288Z,51.80
2022-10-14T10:30:40.967Z,51.60
2022-10-14T10:33:06.945Z,51.90
2022-10-14T10:35:27.282Z,51.80
2022-10-14T10:37:39.357Z,52.10
2022-10-14T10:40:06.675Z,52.10
2022-10-14T10:42:16.402Z,52.40
2022-10-14T10:44:42.059Z,52.30
2022-10-14T10:47:06.538Z,52.30
2022-10-14T10:49:45.508Z,52.50
2022-10-14T10:51:59.248Z,52.60
2022-10-14T10:54:26.599Z,52.30
2022-10-14T10:56:42.937Z,52.10
2022-10-14T10:58:51.832Z,52.20
2022-10-14T11:01:19.049Z,52.10
2022-10-14T11:03:39.090Z,52.30
2022-10-14T11:05:49.923Z,52.30
2022-10-14T11:08:27.272Z,52.30
2022-10-14T11:11:25.382Z,52.40
2022-10-14T11:13:45.178Z,52.50
2022-10-14T11:15:46.809Z,52.50
2022-10-14T11:18:08.553Z,52.50
2022-10-14T11:20:16.678Z,52.70
2022-10-14T11:22:39.975Z,52.80
2022-10-14T11:24:54.436Z,52.80
2022-10-14T11:27:08.741Z,52.70
2022-10-14T11:29:33.858Z,53.00
2022-10-14T11:32:14.442Z,53.20
2022-10-14T11:34:40.018Z,53.60
2022-10-14T11:36:49.939Z,53.20
2022-10-14T11:38:58.266Z,53.20
2022-10-14T11:41:11.727Z,53.40
2022-10-14T11:43:33.282Z,53.40
2022-10-14T11:45:46.706Z,53.60
2022-10-14T11:47:52.647Z,53.60
2022-10-14T11:50:12.645Z,53.40
2022-10-14T11:52:57.686Z,53.70
2022-10-14T11:55:14.565Z,53.80
2022-10-14T11:57:27.518Z,53.60
2022-10-14T11:59:46.367Z,54.00
2022-10-14T12:02:28.438Z,54.10
2022-10-14T12:04:40.876Z,54.40
2022-10-14T12:06:48.799Z,54.40
2022-10-14T12:09:00.451Z,54.30
2022-10-14T12:11:12.466Z,54.80
2022-10-14T12:13:18.062Z,55.30
2022-10-14T12:15:22.795Z,55.30
2022-10-14T12:17:46.727Z,55.20
2022-10-14T12:19:49.101Z,55.10
2022-10-14T12:22:01.170Z,54.70
2022-10-14T12:24:15.620Z,55.00
2022-10-14T12:26:42.044Z,54.80
2022-10-14T12:28:44.324Z,54.70
2022-10-14T12:30:48.284Z,54.70
2022-10-14T12:33:10.407Z,54.60
2022-10-14T12:35:53.266Z,54.90
2022-10-14T12:38:03.853Z,55.40
2022-10-14T12:40:08.672Z,55.40
2022-10-14T12:42:16.969Z,55.40
2022-10-14T12:44:20.733Z,55.40
2022-10-14T12:46:24.930Z,55.50
2022-10-14T12:48:30.227Z,55.50
2022-10-14T12:50:39.318Z,55.50
2022-10-14T12:52:45.950Z,55.50
2022-10-14T12:54:49.302Z,55.30
2022-10-14T12:56:58.967Z,55.50
2022-10-14T12:59:08.566Z,55.50
2022-10-14T13:01:21.428Z,55.50
2022-10-14T13:06:32.109Z,55.40
2022-10-14T13:08:33.842Z,55.50
2022-10-14T13:10:44.983Z,55.10
2022-10-14T13:12:47.821Z,55.00
2022-10-14T13:15:00.108Z,54.50
2022-10-14T13:17:03.335Z,54.40
2022-10-14T13:19:05.275Z,54.00
2022-10-14T13:21:09.134Z,53.80
2022-10-14T13:23:36.701Z,53.80
2022-10-14T13:25:38.744Z,53.80
2022-10-14T13:27:56.123Z,53.70
2022-10-14T13:30:33.878Z,53.80
2022-10-14T13:32:59.029Z,53.70
2022-10-14T13:35:06.900Z,53.80
2022-10-14T13:37:54.109Z,54.00
2022-10-14T13:40:01.227Z,54.10
2022-10-14T13:42:03.648Z,54.20
2022-10-14T13:44:08.441Z,54.40
2022-10-14T13:46:27.579Z,54.60
2022-10-14T13:48:35.506Z,54.80
2022-10-14T13:50:40.475Z,55.00
2022-10-14T13:52:50.272Z,54.90
2022-10-14T13:55:15.207Z,54.80
2022-10-14T13:57:53.671Z,54.30
2022-10-14T14:00:11.588Z,53.90
2022-10-14T14:02:18.888Z,53.90
2022-10-14T14:04:24.860Z,53.50
2022-10-14T14:06:35.767Z,53.10
2022-10-14T14:08:50.979Z,52.40
2022-10-14T14:11:16.197Z,52.20
2022-10-14T14:13:18.238Z,51.40
2022-10-14T14:15:29.773Z,50.40
2022-10-14T14:17:33.247Z,49.50
2022-10-14T14:19:37.018Z,49.50
2022-10-14T14:21:41.226Z,49.30
2022-10-14T14:23:58.265Z,49.40
2022-10-14T14:26:18.346Z,49.40
2022-10-14T14:28:21.272Z,49.00
2022-10-14T14:30:27.548Z,48.70
2022-10-14T14:32:31.878Z,48.60
2022-10-14T14:34:35.862Z,48.40
2022-10-14T14:36:53.212Z,48.50
2022-10-14T14:39:00.985Z,48.40
2022-10-14T14:41:04.391Z,48.30
2022-10-14T14:43:06.281Z,48.40
2022-10-14T14:45:14.885Z,48.40
2022-10-14T14:47:16.661Z,48.50
2022-10-14T14:49:25.283Z,48.50
2022-10-14T14:51:35.155Z,48.70
2022-10-14T14:53:37.599Z,48.60
2022-10-14T14:55:53.412Z,48.60
2022-10-14T14:57:58.589Z,48.60
2022-10-14T15:00:05.475Z,48.20
2022-10-14T15:02:19.046Z,48.10
2022-10-14T15:04:25.734Z,48.20
2022-10-14T15:06:27.482Z,48.20
2022-10-14T15:08:32.892Z,48.10
2022-10-14T15:10:34.748Z,48.40
2022-10-14T15:12:41.808Z,48.40
2022-10-14T15:14:52.402Z,48.30
2022-10-14T15:16:54.235Z,48.30
2022-10-14T15:19:38.190Z,48.40
2022-10-14T15:21:40.429Z,48.40
2022-10-14T15:24:05.327Z,48.50
2022-10-14T15:26:33.378Z,48.60
2022-10-14T15:28:35.152Z,48.90
2022-10-14T15:30:40.256Z,48.50
2022-10-14T15:32:42.095Z,48.70
2022-10-14T15:34:44.064Z,48.70
2022-10-14T15:36:48.423Z,48.60
2022-10-14T15:38:56.114Z,48.40
2022-10-14T15:41:03.043Z,48.30
2022-10-14T15:43:30.500Z,48.30
2022-10-14T15:45:32.264Z,48.20
2022-10-14T15:47:38.795Z,48.00
2022-10-14T15:49:42.690Z,47.90
2022-10-14T15:51:44.323Z,47.80
2022-10-14T15:53:49.260Z,47.70
2022-10-14T15:55:52.995Z,47.60
2022-10-14T15:57:54.615Z,47.60
2022-10-14T15:59:56.280Z,47.70
2022-10-14T16:02:00.287Z,47.70
2022-10-14T16:04:03.004Z,47.70
2022-10-14T16:06:06.066Z,47.10
2022-10-14T16:08:15.641Z,46.40
2022-10-14T16:10:20.132Z,45.20
2022-10-14T16:12:24.154Z,45.10
2022-10-14T16:14:27.574Z,45.10
2022-10-14T16:16:32.961Z,45.00
2022-10-14T16:18:34.865Z,44.60
2022-10-14T16:20:36.639Z,44.50
2022-10-14T16:22:38.290Z,44.50
2022-10-14T16:24:39.986Z,44.70
2022-10-14T16:26:42.197Z,44.70
2022-10-14T16:28:47.026Z,44.70
2022-10-14T16:30:51.980Z,44.80
2022-10-14T16:32:54.874Z,44.70
2022-10-14T16:34:58.710Z,44.80
2022-10-14T16:37:06.958Z,44.60
2022-10-14T16:39:10.715Z,44.70
2022-10-14T16:41:12.515Z,44.70
2022-10-14T16:43:14.149Z,45.00
2022-10-14T16:45:18.279Z,45.20
2022-10-14T16:47:20.681Z,45.30
2022-10-14T16:49:23.603Z,45.30
2022-10-14T16:51:25.345Z,45.70
2022-10-14T16:53:41.138Z,45.70
2022-10-14T16:55:43.086Z,45.80
2022-10-14T16:57:44.770Z,45.90
2022-10-14T16:59:51.141Z,45.90
2022-10-14T17:01:52.993Z,46.00
2022-10-14T17:03:56.249Z,46.00
2022-10-14T17:06:01.440Z,46.10
2022-10-14T17:08:03.080Z,46.30
2022-10-14T17:10:05.335Z,46.40
2022-10-14T17:12:12.764Z,46.70
2022-10-14T17:14:22.970Z,46.60
2022-10-14T17:16:26.988Z,46.80
2022-10-14T17:18:34.350Z,46.70
2022-10-14T17:20:36.488Z,46.90
2022-10-14T17:22:38.122Z,46.90
2022-10-14T17:24:44.525Z,47.00
2022-10-14T17:26:46.629Z,47.10
2022-10-14T17:28:49.023Z,47.50
2022-10-14T17:30:51.042Z,47.40
2022-10-14T17:32:52.689Z,47.70
2022-10-14T17:34:56.724Z,47.80
2022-10-14T17:36:59.637Z,48.00
2022-10-14T17:39:02.019Z,48.20
2022-10-14T17:41:11.044Z,48.20
2022-10-14T17:43:14.145Z,48.40
2022-10-14T17:45:16.366Z,48.40
2022-10-14T17:47:18.173Z,48.60
2022-10-14T17:49:19.879Z,48.80
2022-10-14T17:51:25.476Z,48.90
2022-10-14T17:53:27.422Z,49.00
2022-10-14T17:55:29.326Z,49.00
2022-10-14T17:57:31.088Z,49.00
2022-10-14T17:59:33.217Z,49.10
2022-10-14T18:02:02.124Z,49.20
2022-10-14T18:04:03.382Z,49.20
2022-10-14T18:06:15.862Z,49.20
2022-10-14T18:08:17.486Z,49.50
2022-10-14T18:10:19.678Z,49.40
2022-10-14T18:12:22.649Z,49.70
2022-10-14T18:14:26.849Z,49.60
2022-10-14T18:16:33.468Z,49.70
2022-10-14T18:18:37.851Z,49.70
2022-10-14T18:20:39.587Z,49.70
2022-10-14T18:22:41.395Z,50.00
2022-10-14T18:24:43.930Z,50.20
2022-10-14T18:26:45.606Z,50.10
2022-10-14T18:28:51.440Z,50.10
2022-10-14T18:30:53.080Z,50.20
2022-10-14T18:32:55.884Z,50.10
2022-10-14T18:34:59.881Z,50.20
2022-10-14T18:37:03.932Z,50.20
2022-10-14T18:39:07.963Z,50.20
2022-10-14T18:41:15.644Z,50.20
2022-10-14T18:43:17.341Z,50.40
2022-10-14T18:45:21.392Z,50.40
2022-10-14T18:47:23.073Z,50.40
2022-10-14T18:49:24.791Z,50.60
2022-10-14T18:51:34.739Z,50.50
2022-10-14T18:53:38.880Z,50.90
2022-10-14T18:55:40.610Z,50.50
2022-10-14T18:57:42.245Z,50.60
2022-10-14T18:59:44.130Z,50.60
2022-10-14T19:01:47.011Z,50.70
2022-10-14T19:03:50.576Z,50.70
2022-10-14T19:05:52.991Z,50.80
2022-10-14T19:07:56.563Z,51.10
2022-10-14T19:10:05.682Z,50.90
2022-10-14T19:12:27.363Z,50.90
2022-10-14T19:14:31.657Z,51.00
2022-10-14T19:16:42.048Z,51.20
2022-10-14T19:18:43.878Z,51.00
2022-10-14T19:20:56.118Z,51.10
2022-10-14T19:22:59.878Z,50.90
2022-10-14T19:25:03.874Z,50.90
2022-10-14T19:27:07.951Z,51.00
2022-10-14T19:29:12.431Z,51.10
2022-10-14T19:31:17.221Z,51.20
2022-10-14T19:33:18.929Z,51.20
2022-10-14T19:35:21.556Z,51.20
2022-10-14T19:37:23.690Z,51.20
2022-10-14T19:39:25.993Z,51.20
2022-10-14T19:41:32.243Z,51.20
2022-10-14T19:43:34.646Z,51.30
2022-10-14T19:45:44.662Z,51.30
2022-10-14T19:47:48.536Z,51.30
2022-10-14T19:49:50.324Z,51.10
2022-10-14T19:51:52.018Z,51.00
2022-10-14T19:53:57.832Z,51.00
2022-10-14T19:56:08.642Z,51.10
2022-10-14T19:58:10.639Z,51.10
2022-10-14T20:00:15.334Z,50.90
2022-10-14T20:02:19.370Z,50.80
2022-10-14T20:04:23.915Z,50.80
2022-10-14T20:06:32.652Z,51.00
2022-10-14T20:08:36.134Z,50.90
2022-10-14T20:10:37.784Z,50.80
2022-10-14T20:12:39.476Z,50.60
2022-10-14T20:14:41.177Z,50.60
2022-10-14T20:16:43.325Z,50.40
2022-10-14T20:18:50.021Z,50.60
2022-10-14T20:20:52.013Z,50.50
2022-10-14T20:22:53.791Z,50.60
2022-10-14T20:24:55.561Z,50.60
2022-10-14T20:26:57.343Z,50.60
2022-10-14T20:28:59.052Z,50.70
2022-10-14T20:31:08.843Z,50.80
2022-10-14T20:33:13.211Z,51.00
2022-10-14T20:35:16.692Z,50.90
2022-10-14T20:37:18.373Z,51.00
2022-10-14T20:39:20.166Z,51.00
2022-10-14T20:41:25.202Z,50.90
2022-10-14T20:43:29.010Z,50.90
2022-10-14T20:45:33.079Z,51.10
2022-10-14T20:47:37.884Z,51.10
2022-10-14T20:49:39.562Z,51.20
2022-10-14T20:51:41.806Z,51.00
2022-10-14T20:53:43.597Z,51.00
2022-10-14T20:55:47.674Z,51.10
2022-10-14T20:57:52.183Z,51.60
2022-10-14T20:59:53.825Z,51.10
2022-10-14T21:01:55.462Z,51.20
2022-10-14T21:04:01.217Z,51.20
2022-10-14T21:06:06.837Z,51.30
2022-10-14T21:08:11.008Z,51.20
2022-10-14T21:10:12.687Z,51.10
2022-10-14T21:12:15.005Z,51.20
2022-10-14T21:14:17.653Z,51.20
2022-10-14T21:16:29.118Z,51.30
2022-10-14T21:18:33.329Z,51.30
2022-10-14T21:20:35.284Z,51.20
2022-10-14T21:22:39.130Z,51.20
2022-10-14T21:24:41.615Z,51.30
2022-10-14T21:26:50.042Z,51.30
2022-10-14T21:28:51.976Z,51.30
2022-10-14T21:30:55.997Z,51.20
2022-10-14T21:32:57.625Z,51.20
2022-10-14T21:34:59.358Z,51.30
2022-10-14T21:37:03.232Z,51.20
2022-10-14T21:39:06.655Z,51.80
2022-10-14T21:41:08.994Z,51.20
2022-10-14T21:43:10.852Z,52.00
2022-10-14T21:45:12.590Z,51.20
2022-10-14T21:47:16.571Z,51.20
2022-10-14T21:49:18.451Z,51.10
2022-10-14T21:51:20.105Z,51.30
2022-10-14T21:53:22.497Z,51.50
2022-10-14T21:55:24.198Z,51.30
2022-10-14T21:57:28.891Z,51.20
2022-10-14T21:59:30.631Z,51.30
2022-10-14T22:01:33.562Z,51.50
2022-10-14T22:03:35.994Z,51.40
2022-10-14T22:05:38.619Z,51.40
2022-10-14T22:07:40.264Z,51.30
2022-10-14T22:09:47.749Z,51.30
2022-10-14T22:11:51.503Z,51.20
2022-10-14T22:13:54.539Z,51.30
2022-10-14T22:15:56.783Z,51.30
2022-10-14T22:17:58.471Z,51.20
2022-10-14T22:20:02.321Z,51.20
2022-10-14T22:22:04.268Z,51.20
2022-10-14T22:24:09.120Z,51.40
2022-10-14T22:26:16.061Z,51.50
2022-10-14T22:28:20.171Z,51.50
2022-10-14T22:30:22.061Z,51.60
2022-10-14T22:32:25.757Z,51.60
2022-10-14T22:34:27.460Z,51.60
2022-10-14T22:36:30.517Z,51.70
2022-10-14T22:38:34.869Z,51.70
2022-10-14T22:40:36.533Z,51.70
2022-10-14T22:42:42.045Z,51.70
2022-10-14T22:44:44.397Z,51.80
2022-10-14T22:46:46.454Z,51.80
2022-10-14T22:48:51.867Z,51.80
2022-10-14T22:50:53.486Z,51.60
2022-10-14T22:52:55.310Z,51.80
2022-10-14T22:54:59.366Z,51.60
2022-10-14T22:57:03.046Z,51.70
2022-10-14T22:59:07.867Z,51.70
2022-10-14T23:01:15.722Z,51.60
2022-10-14T23:03:17.493Z,51.70
2022-10-14T23:05:19.162Z,51.70
2022-10-14T23:07:23.355Z,51.60
2022-10-14T23:09:25.189Z,51.50
2022-10-14T23:11:28.519Z,51.30
2022-10-14T23:13:31.398Z,51.20
2022-10-14T23:15:35.966Z,51.20
2022-10-14T23:17:37.695Z,51.20
2022-10-14T23:19:39.416Z,51.30
2022-10-14T23:21:41.216Z,51.20
2022-10-14T23:23:44.033Z,51.00
2022-10-14T23:25:46.052Z,50.90
2022-10-14T23:27:47.939Z,50.70
2022-10-14T23:29:50.123Z,50.70
2022-10-14T23:31:52.860Z,50.90
2022-10-14T23:33:54.950Z,50.80
2022-10-14T23:36:06.275Z,50.90
2022-10-14T23:38:16.819Z,51.00
2022-10-14T23:40:18.604Z,51.00
2022-10-14T23:42:20.496Z,51.00
2022-10-14T23:44:22.377Z,51.00
2022-10-14T23:46:26.382Z,51.00
2022-10-14T23:48:28.566Z,51.20
2022-10-14T23:50:30.358Z,51.10
2022-10-14T23:52:32.107Z,51.20
2022-10-14T23:54:33.822Z,51.20
2022-10-14T23:56:35.652Z,51.30
2022-10-14T23:58:37.374Z,51.60
